createdAt,value
2023-03-28T00:02:27.106Z,1.90
2023-03-28T00:04:54.720Z,1.87
2023-03-28T00:07:22.998Z,2.03
2023-03-28T00:09:51.305Z,2.00
2023-03-28T00:12:20.328Z,2.40
2023-03-28T00:14:47.812Z,1.80
2023-03-28T00:17:17.929Z,2.30
2023-03-28T00:19:46.971Z,2.10
2023-03-28T00:22:14.422Z,2.47
2023-03-28T00:24:41.946Z,1.80
2023-03-28T00:27:09.559Z,2.13
2023-03-28T00:29:38.496Z,2.00
2023-03-28T00:32:06.332Z,1.77
2023-03-28T00:34:33.848Z,1.90
2023-03-28T00:37:02.552Z,1.83
2023-03-28T00:39:31.248Z,2.00
2023-03-28T00:42:01.664Z,2.10
2023-03-28T00:44:44.692Z,2.43
2023-03-28T00:47:15.539Z,1.93
2023-03-28T00:49:44.131Z,2.10
2023-03-28T00:52:14.075Z,2.00
2023-03-28T00:54:41.538Z,2.97
2023-03-28T00:57:09.389Z,2.07
2023-03-28T00:59:38.325Z,1.93
2023-03-28T01:02:07.624Z,2.20
2023-03-28T01:04:38.178Z,2.10
2023-03-28T01:07:06.574Z,2.40
2023-03-28T01:09:34.164Z,2.20
2023-03-28T01:12:01.751Z,2.20
2023-03-28T01:14:30.298Z,2.10
2023-03-28T01:16:57.889Z,1.97
2023-03-28T01:19:36.182Z,1.90
2023-03-28T01:22:18.989Z,1.70
2023-03-28T01:25:06.791Z,1.80
2023-03-28T01:27:36.650Z,1.80
2023-03-28T01:30:27.605Z,1.70
2023-03-28T01:33:18.904Z,1.87
2023-03-28T01:36:05.372Z,1.80
2023-03-28T01:38:38.161Z,2.47
2023-03-28T01:41:09.788Z,1.83
2023-03-28T01:43:41.182Z,2.10
2023-03-28T01:46:10.789Z,2.00
2023-03-28T01:48:42.074Z,1.93
2023-03-28T01:51:12.367Z,2.37
2023-03-28T01:53:45.254Z,1.80
2023-03-28T01:56:15.660Z,1.93
2023-03-28T01:58:46.473Z,2.07
2023-03-28T02:01:16.706Z,1.63
2023-03-28T02:03:47.851Z,2.57
2023-03-28T02:06:17.107Z,2.00
2023-03-28T02:08:47.122Z,2.10
2023-03-28T02:11:14.845Z,1.90
2023-03-28T02:13:44.802Z,2.00
2023-03-28T02:16:12.942Z,2.03
2023-03-28T02:18:41.849Z,1.80
2023-03-28T02:21:11.292Z,2.10
2023-03-28T02:23:40.297Z,1.80
2023-03-28T02:26:09.383Z,1.57
2023-03-28T02:28:37.908Z,2.13
2023-03-28T02:31:07.192Z,1.90
2023-03-28T02:33:38.141Z,1.70
2023-03-28T02:36:13.685Z,2.00
2023-03-28T02:38:44.055Z,1.80
2023-03-28T02:41:18.235Z,2.30
2023-03-28T02:43:56.394Z,1.73
2023-03-28T02:46:26.456Z,2.17
2023-03-28T02:48:59.482Z,2.10
2023-03-28T02:51:31.625Z,2.00
2023-03-28T02:54:03.095Z,2.27
2023-03-28T02:56:37.624Z,1.90
2023-03-28T02:59:07.658Z,1.90
2023-03-28T03:01:36.830Z,2.40
2023-03-28T03:04:05.052Z,1.70
2023-03-28T03:06:35.121Z,1.80
2023-03-28T03:09:02.920Z,2.30
2023-03-28T03:11:31.773Z,1.90
2023-03-28T03:14:00.264Z,2.00
2023-03-28T03:16:29.367Z,1.93
2023-03-28T03:18:57.242Z,1.93
2023-03-28T03:21:25.236Z,2.30
2023-03-28T03:23:53.225Z,2.10
2023-03-28T03:26:20.849Z,1.80
2023-03-28T03:28:50.443Z,2.10
2023-03-28T03:31:19.633Z,2.30
2023-03-28T03:33:47.339Z,2.10
2023-03-28T03:36:17.157Z,2.30
2023-03-28T03:38:44.680Z,2.40
2023-03-28T03:41:12.269Z,2.17
2023-03-28T03:43:39.758Z,2.10
2023-03-28T03:46:08.858Z,2.33
2023-03-28T03:48:36.425Z,2.50
2023-03-28T03:51:03.913Z,2.60
2023-03-28T03:53:31.580Z,2.17
2023-03-28T03:56:01.243Z,2.40
2023-03-28T03:58:29.419Z,2.50
2023-03-28T04:00:57.705Z,2.37
2023-03-28T04:03:26.933Z,2.53
2023-03-28T04:05:55.082Z,2.37
2023-03-28T04:08:22.886Z,2.70
2023-03-28T04:10:50.927Z,2.40
2023-03-28T04:13:18.450Z,3.43
2023-03-28T04:15:47.715Z,2.37
2023-03-28T04:18:17.968Z,2.47
2023-03-28T04:20:49.583Z,2.20
2023-03-28T04:23:18.496Z,2.30
2023-03-28T04:25:46.097Z,2.70
2023-03-28T04:28:16.307Z,2.73
2023-03-28T04:30:44.468Z,2.33
2023-03-28T04:33:11.991Z,3.00
2023-03-28T04:35:39.503Z,2.33
2023-03-28T04:38:09.698Z,2.47
2023-03-28T04:40:48.096Z,2.93
2023-03-28T04:43:15.633Z,2.60
2023-03-28T04:45:43.150Z,2.90
2023-03-28T04:48:10.761Z,2.97
2023-03-28T04:50:38.359Z,2.43
2023-03-28T04:53:05.914Z,2.83
2023-03-28T04:55:34.837Z,2.80
2023-03-28T04:58:02.277Z,2.70
2023-03-28T05:00:29.849Z,2.40
2023-03-28T05:02:59.969Z,2.63
2023-03-28T05:05:28.072Z,2.70
2023-03-28T05:07:55.651Z,3.00
2023-03-28T05:10:23.411Z,2.77
2023-03-28T05:12:52.468Z,2.90
2023-03-28T05:15:21.685Z,2.87
2023-03-28T05:17:50.803Z,3.30
2023-03-28T05:20:18.723Z,2.63
2023-03-28T05:22:46.313Z,3.00
2023-03-28T05:25:13.920Z,3.00
2023-03-28T05:27:41.795Z,2.87
2023-03-28T05:30:11.548Z,3.00
2023-03-28T05:32:39.391Z,2.90
2023-03-28T05:35:07.856Z,4.07
2023-03-28T05:37:35.464Z,2.90
2023-03-28T05:40:05.279Z,3.00
2023-03-28T05:42:32.919Z,3.20
2023-03-28T05:45:00.479Z,2.80
2023-03-28T05:47:29.391Z,2.80
2023-03-28T05:49:57.118Z,3.20
2023-03-28T05:52:24.715Z,3.07
2023-03-28T05:54:52.539Z,3.40
2023-03-28T05:57:20.958Z,2.90
2023-03-28T05:59:49.751Z,2.97
2023-03-28T06:02:18.056Z,3.70
2023-03-28T06:04:47.031Z,3.70
2023-03-28T06:07:14.703Z,3.20
2023-03-28T06:09:42.304Z,3.27
2023-03-28T06:12:09.819Z,2.87
2023-03-28T06:14:37.304Z,3.20
2023-03-28T06:17:05.134Z,3.27
2023-03-28T06:19:32.667Z,3.27
2023-03-28T06:22:02.868Z,3.40
2023-03-28T06:24:30.777Z,3.00
2023-03-28T06:26:58.652Z,3.30
2023-03-28T06:29:26.188Z,4.00
2023-03-28T06:31:53.879Z,3.43
2023-03-28T06:34:21.471Z,3.37
2023-03-28T06:36:49.105Z,3.63
2023-03-28T06:39:18.083Z,3.30
2023-03-28T06:41:45.704Z,3.30
2023-03-28T06:44:13.275Z,3.13
2023-03-28T06:46:40.888Z,3.70
2023-03-28T06:49:08.408Z,3.70
2023-03-28T06:51:36.063Z,3.33
2023-03-28T06:54:03.541Z,3.60
2023-03-28T06:56:33.451Z,3.50
2023-03-28T06:59:00.979Z,3.47
2023-03-28T07:01:28.533Z,3.37
2023-03-28T07:03:59.486Z,3.37
2023-03-28T07:06:27.732Z,3.40
2023-03-28T07:08:55.389Z,3.67
2023-03-28T07:11:23.158Z,4.40
2023-03-28T07:13:52.071Z,4.00
2023-03-28T07:16:19.736Z,4.63
2023-03-28T07:18:47.347Z,3.90
2023-03-28T07:21:18.720Z,4.40
2023-03-28T07:23:46.253Z,4.23
2023-03-28T07:26:14.481Z,6.00
2023-03-28T07:28:42.268Z,4.20
2023-03-28T07:31:11.153Z,4.00
2023-03-28T07:33:39.265Z,4.23
2023-03-28T07:36:11.774Z,4.20
2023-03-28T07:38:39.320Z,3.90
2023-03-28T07:41:07.979Z,3.10
2023-03-28T07:43:35.674Z,4.47
2023-03-28T07:46:03.582Z,3.50
2023-03-28T07:48:32.421Z,5.10
2023-03-28T07:51:00.516Z,4.30
2023-03-28T07:53:28.217Z,3.13
2023-03-28T07:55:56.366Z,3.50
2023-03-28T07:58:24.545Z,3.20
2023-03-28T08:00:52.189Z,3.30
2023-03-28T08:03:19.883Z,3.43
2023-03-28T08:05:51.950Z,3.37
2023-03-28T08:08:20.206Z,3.20
2023-03-28T08:10:51.084Z,4.40
2023-03-28T08:13:19.625Z,3.70
2023-03-28T08:15:50.731Z,3.00
2023-03-28T08:18:22.215Z,3.30
2023-03-28T08:20:51.676Z,2.70
2023-03-28T08:23:19.207Z,3.47
2023-03-28T08:25:47.875Z,3.17
2023-03-28T08:28:15.415Z,3.30
2023-03-28T08:30:42.888Z,4.47
2023-03-28T08:33:10.668Z,2.90
2023-03-28T08:35:39.145Z,2.33
2023-03-28T08:38:10.504Z,3.43
2023-03-28T08:40:39.636Z,2.80
2023-03-28T08:43:12.902Z,2.80
2023-03-28T08:45:46.555Z,2.97
2023-03-28T08:48:19.386Z,2.63
2023-03-28T08:50:49.374Z,2.63
2023-03-28T08:53:21.289Z,2.53
2023-03-28T08:55:50.618Z,2.73
2023-03-28T08:58:23.251Z,2.43
2023-03-28T09:00:52.031Z,2.60
2023-03-28T09:03:20.724Z,2.30
2023-03-28T09:05:50.912Z,2.87
2023-03-28T09:08:36.585Z,2.63
2023-03-28T09:11:09.139Z,1.57
2023-03-28T09:13:38.822Z,2.60
2023-03-28T09:16:20.464Z,1.60
2023-03-28T09:18:56.623Z,1.53
2023-03-28T09:21:29.246Z,2.10
2023-03-28T09:24:15.355Z,1.70
2023-03-28T09:26:45.753Z,1.43
2023-03-28T09:29:15.415Z,1.47
2023-03-28T09:31:46.493Z,1.53
2023-03-28T09:34:19.907Z,1.53
2023-03-28T09:36:49.634Z,1.63
2023-03-28T09:39:23.237Z,1.95
2023-03-28T09:41:54.857Z,2.70
2023-03-28T09:44:27.574Z,1.20
2023-03-28T09:46:56.436Z,1.80
2023-03-28T09:49:25.618Z,1.40
2023-03-28T09:51:55.483Z,1.57
2023-03-28T09:54:28.597Z,1.53
2023-03-28T09:56:59.570Z,1.30
2023-03-28T09:59:28.864Z,1.10
2023-03-28T10:01:57.217Z,1.30
2023-03-28T10:04:32.639Z,1.50
2023-03-28T10:07:16.502Z,1.60
2023-03-28T10:09:48.458Z,1.20
2023-03-28T10:12:21.237Z,1.60
2023-03-28T10:14:48.783Z,1.50
2023-03-28T10:17:18.761Z,2.40
2023-03-28T10:19:47.267Z,1.40
2023-03-28T10:22:16.950Z,1.40
2023-03-28T10:24:46.765Z,1.20
2023-03-28T10:27:17.556Z,1.20
2023-03-28T10:29:47.503Z,1.00
2023-03-28T10:32:24.405Z,1.00
2023-03-28T10:35:00.549Z,1.00
2023-03-28T10:37:29.107Z,1.03
2023-03-28T10:40:00.430Z,1.70
2023-03-28T10:42:28.024Z,1.10
2023-03-28T10:45:05.667Z,1.37
2023-03-28T10:47:33.660Z,1.00
2023-03-28T10:50:01.493Z,0.97
2023-03-28T10:52:37.288Z,1.23
2023-03-28T10:55:10.994Z,1.10
2023-03-28T10:57:41.535Z,1.10
2023-03-28T11:00:14.287Z,0.93
2023-03-28T11:02:56.893Z,1.27
2023-03-28T11:05:29.143Z,0.93
2023-03-28T11:08:00.637Z,0.93
2023-03-28T11:10:32.241Z,1.00
2023-03-28T11:13:05.395Z,0.80
2023-03-28T11:15:38.080Z,1.03
2023-03-28T11:18:11.745Z,1.00
2023-03-28T11:20:45.664Z,0.90
2023-03-28T11:23:31.387Z,0.90
2023-03-28T11:26:02.319Z,0.90
2023-03-28T11:28:35.052Z,1.40
2023-03-28T11:31:04.335Z,1.03
2023-03-28T11:33:33.951Z,1.00
2023-03-28T11:36:05.691Z,1.00
2023-03-28T11:38:34.345Z,0.87
2023-03-28T11:41:03.747Z,0.90
2023-03-28T11:43:33.700Z,1.10
2023-03-28T11:46:04.726Z,0.80
2023-03-28T11:48:37.037Z,0.90
2023-03-28T11:51:07.547Z,1.20
2023-03-28T11:53:37.507Z,0.90
2023-03-28T11:56:08.473Z,1.13
2023-03-28T11:58:38.689Z,1.10
2023-03-28T12:01:07.818Z,1.37
2023-03-28T12:03:42.718Z,1.10
2023-03-28T12:06:13.936Z,1.10
2023-03-28T12:08:42.838Z,1.10
2023-03-28T12:11:13.505Z,1.00
2023-03-28T12:13:46.659Z,1.10
2023-03-28T12:16:17.203Z,1.30
2023-03-28T12:18:48.031Z,1.20
2023-03-28T12:21:18.761Z,1.27
2023-03-28T12:23:53.670Z,1.20
2023-03-28T12:26:23.740Z,1.20
2023-03-28T12:28:53.809Z,1.30
2023-03-28T12:31:23.861Z,1.40
2023-03-28T12:34:01.160Z,1.27
2023-03-28T12:36:34.118Z,1.47
2023-03-28T12:39:04.811Z,1.50
2023-03-28T12:41:34.453Z,1.40
2023-03-28T12:44:04.612Z,1.50
2023-03-28T12:46:36.095Z,1.20
2023-03-28T12:49:06.592Z,1.47
2023-03-28T12:51:36.307Z,1.20
2023-03-28T12:54:08.357Z,1.37
2023-03-28T12:56:36.331Z,1.17
2023-03-28T12:59:17.315Z,1.20
2023-03-28T13:01:48.642Z,1.30
2023-03-28T13:04:29.038Z,1.43
2023-03-28T13:07:03.760Z,1.63
2023-03-28T13:09:40.232Z,1.50
2023-03-28T13:12:14.227Z,1.20
2023-03-28T13:14:42.218Z,1.80
2023-03-28T13:17:21.628Z,1.40
2023-03-28T13:19:53.474Z,1.10
2023-03-28T13:22:31.418Z,1.20
2023-03-28T13:25:21.146Z,1.30
2023-03-28T13:27:49.356Z,1.30
2023-03-28T13:30:17.666Z,1.10
2023-03-28T13:32:46.564Z,1.00
2023-03-28T13:35:28.951Z,1.20
2023-03-28T13:38:14.031Z,1.30
2023-03-28T13:40:45.486Z,1.37
2023-03-28T13:43:23.242Z,1.40
2023-03-28T13:45:51.030Z,1.30
2023-03-28T13:48:18.504Z,1.30
2023-03-28T13:50:46.484Z,1.30
2023-03-28T13:53:15.366Z,1.10
2023-03-28T13:55:44.128Z,1.20
2023-03-28T13:58:13.045Z,1.10
2023-03-28T14:00:40.821Z,1.10
2023-03-28T14:03:14.207Z,1.23
2023-03-28T14:05:44.258Z,1.20
2023-03-28T14:08:25.274Z,1.30
2023-03-28T14:10:55.409Z,1.10
2023-03-28T14:13:25.353Z,1.30
2023-03-28T14:15:53.456Z,1.30
2023-03-28T14:18:25.970Z,1.07
2023-03-28T14:20:55.690Z,1.47
2023-03-28T14:23:29.700Z,1.40
2023-03-28T14:25:58.713Z,1.30
2023-03-28T14:28:28.703Z,1.20
2023-03-28T14:30:56.302Z,1.30
2023-03-28T14:33:24.478Z,1.17
2023-03-28T14:35:58.992Z,1.10
2023-03-28T14:38:33.131Z,1.40
2023-03-28T14:41:08.705Z,1.37
2023-03-28T14:43:36.721Z,1.27
2023-03-28T14:46:06.651Z,1.33
2023-03-28T14:48:34.912Z,1.30
2023-03-28T14:51:03.997Z,1.00
2023-03-28T14:53:37.746Z,1.17
2023-03-28T14:56:08.772Z,1.10
2023-03-28T14:58:38.118Z,1.30
2023-03-28T15:01:07.181Z,1.20
2023-03-28T15:03:38.941Z,1.10
2023-03-28T15:06:07.966Z,1.33
2023-03-28T15:08:37.891Z,1.50
2023-03-28T15:11:08.466Z,1.20
2023-03-28T15:13:37.172Z,1.17
2023-03-28T15:16:05.825Z,1.33
2023-03-28T15:18:35.809Z,1.20
2023-03-28T15:21:04.706Z,1.20
2023-03-28T15:23:33.222Z,1.43
2023-03-28T15:26:03.499Z,1.40
2023-03-28T15:28:31.135Z,1.37
2023-03-28T15:31:01.227Z,1.27
2023-03-28T15:33:32.624Z,1.20
2023-03-28T15:36:07.377Z,1.50
2023-03-28T15:38:38.366Z,1.57
2023-03-28T15:41:11.885Z,1.60
2023-03-28T15:43:40.986Z,1.30
2023-03-28T15:46:13.006Z,1.50
2023-03-28T15:48:41.956Z,1.47
2023-03-28T15:51:11.383Z,3.20
2023-03-28T15:53:41.357Z,8.37
2023-03-28T15:56:13.838Z,6.40
2023-03-28T15:58:42.351Z,10.60
2023-03-28T16:01:20.387Z,1.70
2023-03-28T16:03:47.977Z,1.60
2023-03-28T16:06:32.320Z,1.30
2023-03-28T16:09:13.807Z,3.40
2023-03-28T16:11:42.712Z,1.40
2023-03-28T16:14:12.312Z,1.20
2023-03-28T16:16:40.160Z,1.90
2023-03-28T16:19:10.377Z,1.20
2023-03-28T16:21:37.881Z,1.13
2023-03-28T16:24:05.693Z,1.20
2023-03-28T16:26:34.526Z,1.40
2023-03-28T16:29:04.306Z,1.60
2023-03-28T16:31:32.012Z,1.27
2023-03-28T16:34:00.274Z,1.23
2023-03-28T16:36:27.775Z,2.37
2023-03-28T16:38:55.262Z,1.20
2023-03-28T16:41:22.766Z,1.40
2023-03-28T16:43:50.255Z,1.30
2023-03-28T16:46:19.217Z,1.30
2023-03-28T16:48:46.738Z,2.00
2023-03-28T16:51:14.209Z,1.20
2023-03-28T16:53:42.063Z,2.43
2023-03-28T16:56:11.926Z,2.00
2023-03-28T16:58:39.733Z,1.60
2023-03-28T17:01:08.539Z,1.47
2023-03-28T17:03:37.494Z,1.33
2023-03-28T17:06:05.842Z,1.43
2023-03-28T17:08:33.437Z,1.67
2023-03-28T17:11:01.365Z,1.30
2023-03-28T17:13:29.025Z,1.20
2023-03-28T17:15:56.757Z,1.50
2023-03-28T17:18:24.260Z,1.23
2023-03-28T17:21:01.098Z,1.10
2023-03-28T17:23:29.123Z,1.20
2023-03-28T17:25:56.977Z,1.40
2023-03-28T17:28:24.692Z,2.00
2023-03-28T17:30:52.226Z,6.20
2023-03-28T17:33:20.327Z,1.90
2023-03-28T17:35:48.044Z,1.70
2023-03-28T17:38:16.952Z,1.50
2023-03-28T17:40:47.169Z,1.90
2023-03-28T17:43:16.256Z,1.80
2023-03-28T17:45:44.173Z,1.70
2023-03-28T17:48:12.670Z,1.80
2023-03-28T17:50:40.283Z,2.00
2023-03-28T17:53:07.873Z,2.17
2023-03-28T17:55:37.039Z,1.90
2023-03-28T17:58:04.663Z,1.60
2023-03-28T18:00:32.296Z,2.03
2023-03-28T18:02:59.855Z,2.40
2023-03-28T18:05:28.212Z,2.90
2023-03-28T18:07:57.275Z,3.00
2023-03-28T18:10:24.769Z,2.50
2023-03-28T18:12:53.574Z,2.30
2023-03-28T18:15:21.264Z,2.37
2023-03-28T18:17:48.786Z,2.97
2023-03-28T18:20:17.240Z,3.30
2023-03-28T18:22:44.836Z,2.10
2023-03-28T18:25:12.432Z,2.33
2023-03-28T18:27:39.929Z,4.47
2023-03-28T18:30:09.820Z,5.67
2023-03-28T18:32:37.587Z,3.87
2023-03-28T18:35:07.113Z,2.30
2023-03-28T18:37:34.809Z,2.57
2023-03-28T18:40:05.214Z,2.87
2023-03-28T18:42:32.922Z,2.20
2023-03-28T18:45:00.372Z,2.30
2023-03-28T18:47:29.174Z,1.50
2023-03-28T18:49:56.851Z,2.33
2023-03-28T18:52:28.328Z,3.10
2023-03-28T18:54:57.102Z,4.27
2023-03-28T18:57:24.664Z,1.77
2023-03-28T18:59:55.489Z,2.00
2023-03-28T19:02:24.665Z,1.83
2023-03-28T19:04:53.627Z,1.60
2023-03-28T19:07:21.546Z,1.60
2023-03-28T19:09:49.077Z,1.47
2023-03-28T19:12:16.908Z,1.67
2023-03-28T19:14:44.350Z,1.67
2023-03-28T19:17:12.251Z,1.90
2023-03-28T19:19:39.770Z,1.40
2023-03-28T19:22:09.627Z,1.50
2023-03-28T19:24:37.421Z,1.40
2023-03-28T19:27:05.568Z,1.33
2023-03-28T19:29:33.135Z,1.30
2023-03-28T19:32:00.908Z,1.10
2023-03-28T19:34:29.084Z,1.10
2023-03-28T19:36:56.701Z,1.30
2023-03-28T19:39:25.513Z,1.30
2023-03-28T19:41:54.038Z,2.57
2023-03-28T19:44:21.505Z,1.63
2023-03-28T19:46:49.048Z,1.60
2023-03-28T19:49:17.321Z,2.30
2023-03-28T19:51:44.791Z,1.87
2023-03-28T19:54:12.250Z,1.93
2023-03-28T19:56:41.985Z,1.80
2023-03-28T19:59:09.551Z,1.70
2023-03-28T20:01:37.169Z,1.83
2023-03-28T20:04:04.753Z,1.80
2023-03-28T20:06:32.339Z,1.70
2023-03-28T20:08:59.943Z,1.90
2023-03-28T20:11:27.797Z,2.13
2023-03-28T20:13:56.660Z,2.20
2023-03-28T20:16:24.193Z,2.03
2023-03-28T20:18:51.734Z,2.17
2023-03-28T20:21:19.574Z,2.33
2023-03-28T20:23:47.114Z,2.30
2023-03-28T20:26:16.017Z,2.43
2023-03-28T20:28:46.735Z,2.20
2023-03-28T20:31:15.853Z,2.60
2023-03-28T20:33:43.781Z,2.60
2023-03-28T20:36:11.400Z,2.40
2023-03-28T20:38:38.848Z,2.57
2023-03-28T20:41:10.202Z,3.00
2023-03-28T20:43:40.719Z,2.60
2023-03-28T20:46:09.812Z,3.27
2023-03-28T20:48:38.693Z,2.40
2023-03-28T20:51:13.853Z,2.20
2023-03-28T20:53:41.760Z,2.70
2023-03-28T20:56:09.957Z,3.20
2023-03-28T20:58:38.977Z,3.10
2023-03-28T21:01:07.466Z,2.80
2023-03-28T21:03:48.255Z,2.80
2023-03-28T21:06:17.276Z,2.60
2023-03-28T21:08:47.098Z,2.80
2023-03-28T21:11:14.868Z,3.13
2023-03-28T21:13:42.395Z,3.10
2023-03-28T21:16:10.373Z,3.10
2023-03-28T21:18:38.731Z,2.83
2023-03-28T21:21:07.383Z,2.70
2023-03-28T21:23:37.203Z,2.50
2023-03-28T21:26:04.722Z,2.77
2023-03-28T21:28:33.422Z,2.40
2023-03-28T21:31:01.655Z,2.37
2023-03-28T21:33:29.542Z,2.70
2023-03-28T21:35:57.944Z,2.90
2023-03-28T21:38:26.078Z,3.20
2023-03-28T21:40:55.109Z,2.67
2023-03-28T21:43:22.644Z,3.00
2023-03-28T21:45:50.248Z,2.50
2023-03-28T21:48:18.216Z,2.60
2023-03-28T21:50:50.132Z,2.60
2023-03-28T21:53:17.660Z,2.70
2023-03-28T21:55:45.759Z,2.57
2023-03-28T21:58:14.648Z,2.50
2023-03-28T22:00:42.140Z,2.40
2023-03-28T22:03:09.721Z,2.43
2023-03-28T22:05:42.054Z,2.37
2023-03-28T22:08:10.515Z,2.60
2023-03-28T22:10:38.160Z,2.73
2023-03-28T22:13:06.741Z,2.60
2023-03-28T22:15:35.605Z,2.70
2023-03-28T22:18:04.544Z,2.40
2023-03-28T22:20:32.080Z,2.83
2023-03-28T22:23:00.780Z,2.30
2023-03-28T22:25:34.862Z,2.80
2023-03-28T22:28:03.929Z,2.63
2023-03-28T22:30:31.716Z,2.37
2023-03-28T22:33:00.676Z,2.50
2023-03-28T22:35:28.206Z,2.23
2023-03-28T22:37:55.663Z,2.67
2023-03-28T22:40:23.365Z,2.23
2023-03-28T22:42:50.866Z,2.40
2023-03-28T22:45:18.734Z,2.60
2023-03-28T22:47:50.169Z,2.30
2023-03-28T22:50:19.702Z,2.60
2023-03-28T22:52:50.297Z,2.50
2023-03-28T22:55:18.224Z,2.53
2023-03-28T22:57:46.103Z,2.50
2023-03-28T23:00:14.937Z,2.43
2023-03-28T23:02:42.471Z,2.40
2023-03-28T23:05:11.036Z,2.57
2023-03-28T23:07:41.496Z,2.87
2023-03-28T23:10:09.611Z,2.30
2023-03-28T23:12:37.114Z,2.70
2023-03-28T23:15:04.876Z,2.43
2023-03-28T23:17:32.340Z,2.47
2023-03-28T23:20:00.513Z,2.23
2023-03-28T23:22:28.076Z,2.83
2023-03-28T23:24:56.926Z,2.47
2023-03-28T23:27:24.374Z,2.40
2023-03-28T23:29:51.872Z,2.53
2023-03-28T23:32:19.351Z,2.70
2023-03-28T23:34:46.889Z,2.50
2023-03-28T23:37:14.389Z,2.60
2023-03-28T23:39:42.231Z,2.90
2023-03-28T23:42:11.141Z,2.67
2023-03-28T23:44:38.687Z,2.80
2023-03-28T23:47:06.209Z,2.80
2023-03-28T23:49:33.733Z,2.40
2023-03-28T23:52:01.253Z,2.77
2023-03-28T23:54:29.934Z,2.50
2023-03-28T23:56:57.564Z,3.00
2023-03-28T23:59:26.554Z,2.80
